createdAt,value
2023-09-29T00:03:02.233Z,100971.19
2023-09-29T00:06:05.312Z,100963.88
2023-09-29T00:09:08.275Z,100967.75
2023-09-29T00:12:11.198Z,100964.12
2023-09-29T00:15:14.280Z,100971.19
2023-09-29T00:18:17.340Z,100968.84
2023-09-29T00:21:20.431Z,100970.22
2023-09-29T00:24:23.522Z,100967.41
2023-09-29T00:27:26.349Z,100973.44
2023-09-29T00:30:29.516Z,100970.47
2023-09-29T00:33:32.706Z,100969.31
2023-09-29T00:36:35.905Z,100963.03
2023-09-29T00:39:38.473Z,100968.97
2023-09-29T00:42:43.374Z,100970.13
2023-09-29T00:45:48.969Z,100968.34
2023-09-29T00:48:53.904Z,100954.03
2023-09-29T00:52:01.154Z,100957.91
2023-09-29T00:55:06.812Z,100964.28
2023-09-29T00:58:10.668Z,100970.50
2023-09-29T01:01:14.522Z,100961.00
2023-09-29T01:04:17.647Z,100964.28
2023-09-29T01:07:21.668Z,100958.25
2023-09-29T01:10:25.470Z,100969.50
2023-09-29T01:13:28.613Z,100964.09
2023-09-29T01:16:31.187Z,100960.28
2023-09-29T01:19:34.912Z,100959.66
2023-09-29T01:22:45.880Z,100962.37
2023-09-29T01:25:48.913Z,100967.41
2023-09-29T01:28:54.053Z,100963.22
2023-09-29T01:31:57.022Z,100957.25
2023-09-29T01:34:59.843Z,100960.84
2023-09-29T01:38:03.485Z,100954.69
2023-09-29T01:41:06.305Z,100966.88
2023-09-29T01:44:09.312Z,100961.06
2023-09-29T01:47:12.076Z,100957.09
2023-09-29T01:50:16.583Z,100953.59
2023-09-29T01:53:19.266Z,100960.03
2023-09-29T01:56:22.829Z,100960.41
2023-09-29T01:59:25.667Z,100959.75
2023-09-29T02:02:30.010Z,100959.09
2023-09-29T02:05:33.240Z,100971.63
2023-09-29T02:08:36.510Z,100960.13
2023-09-29T02:11:40.591Z,100965.81
2023-09-29T02:14:43.544Z,100954.16
2023-09-29T02:17:49.472Z,100959.37
2023-09-29T02:20:52.565Z,100957.16
2023-09-29T02:23:58.391Z,100963.81
2023-09-29T02:27:01.161Z,100963.81
2023-09-29T02:30:04.696Z,100954.00
2023-09-29T02:33:08.124Z,100957.03
2023-09-29T02:36:11.672Z,100954.88
2023-09-29T02:39:14.218Z,100960.00
2023-09-29T02:42:18.375Z,100962.47
2023-09-29T02:45:21.036Z,100959.81
2023-09-29T02:48:24.991Z,100959.13
2023-09-29T02:51:27.629Z,100951.19
2023-09-29T02:54:31.288Z,100954.69
2023-09-29T02:57:34.880Z,100958.69
2023-09-29T03:00:40.605Z,100960.62
2023-09-29T03:03:45.357Z,100960.62
2023-09-29T03:06:48.936Z,100955.31
2023-09-29T03:09:52.029Z,100958.97
2023-09-29T03:12:57.990Z,100950.31
2023-09-29T03:16:02.745Z,100953.31
2023-09-29T03:19:05.660Z,100955.19
2023-09-29T03:22:08.960Z,100953.69
2023-09-29T03:25:18.106Z,100959.37
2023-09-29T03:28:21.145Z,100953.69
2023-09-29T03:31:25.514Z,100951.38
2023-09-29T03:34:28.022Z,100949.53
2023-09-29T03:37:30.981Z,100946.19
2023-09-29T03:40:33.792Z,100957.72
2023-09-29T03:43:36.813Z,100958.53
2023-09-29T03:46:40.308Z,100954.38
2023-09-29T03:49:44.361Z,100963.53
2023-09-29T03:52:49.928Z,100963.38
2023-09-29T03:55:53.496Z,100958.87
2023-09-29T03:58:57.310Z,100963.38
2023-09-29T04:02:00.388Z,100967.03
2023-09-29T04:05:03.685Z,100964.53
2023-09-29T04:08:06.738Z,100970.19
2023-09-29T04:11:10.161Z,100971.72
2023-09-29T04:14:20.541Z,100972.37
2023-09-29T04:17:38.674Z,100970.38
2023-09-29T04:20:42.579Z,100968.38
2023-09-29T04:23:45.837Z,100976.69
2023-09-29T04:26:49.603Z,100980.03
2023-09-29T04:29:53.476Z,100971.03
2023-09-29T04:32:56.339Z,100970.03
2023-09-29T04:35:59.487Z,100985.38
2023-09-29T04:39:02.413Z,100980.84
2023-09-29T04:42:06.184Z,100983.19
2023-09-29T04:45:09.658Z,100985.03
2023-09-29T04:48:12.983Z,100988.34
2023-09-29T04:51:15.762Z,100990.53
2023-09-29T04:54:19.332Z,100995.03
2023-09-29T04:57:23.358Z,100996.50
2023-09-29T05:00:27.920Z,100993.50
2023-09-29T05:03:30.884Z,100990.84
2023-09-29T05:06:34.077Z,101000.66
2023-09-29T05:09:36.655Z,101002.66
2023-09-29T05:12:39.733Z,100997.97
2023-09-29T05:15:42.706Z,100996.66
2023-09-29T05:18:46.377Z,101007.81
2023-09-29T05:21:49.265Z,100999.97
2023-09-29T05:24:54.861Z,101008.62
2023-09-29T05:27:57.372Z,101004.59
2023-09-29T05:31:01.094Z,101010.25
2023-09-29T05:34:03.916Z,101000.94
2023-09-29T05:37:06.970Z,101006.91
2023-09-29T05:40:10.367Z,101002.56
2023-09-29T05:43:14.898Z,101001.84
2023-09-29T05:46:17.784Z,101000.84
2023-09-29T05:49:20.981Z,101002.66
2023-09-29T05:52:23.757Z,101007.75
2023-09-29T05:55:27.361Z,101015.56
2023-09-29T05:58:31.887Z,101004.00
2023-09-29T06:01:34.729Z,101011.78
2023-09-29T06:04:37.685Z,101019.75
2023-09-29T06:07:41.214Z,101018.03
2023-09-29T06:10:45.461Z,101021.84
2023-09-29T06:13:48.164Z,101022.00
2023-09-29T06:16:51.066Z,101032.47
2023-09-29T06:19:53.861Z,101022.41
2023-09-29T06:22:56.953Z,101026.72
2023-09-29T06:26:01.142Z,101030.78
2023-09-29T06:29:06.007Z,101034.25
2023-09-29T06:32:12.031Z,101032.63
2023-09-29T06:35:16.087Z,101032.31
2023-09-29T06:38:19.035Z,101035.47
2023-09-29T06:41:21.901Z,101031.41
2023-09-29T06:44:25.023Z,101034.38
2023-09-29T06:47:28.226Z,101033.47
2023-09-29T06:50:30.749Z,101035.59
2023-09-29T06:53:33.886Z,101036.16
2023-09-29T06:56:37.360Z,101034.19
2023-09-29T06:59:40.614Z,101032.72
2023-09-29T07:02:44.112Z,101041.53
2023-09-29T07:05:47.756Z,101043.56
2023-09-29T07:08:51.024Z,101057.34
2023-09-29T07:11:54.044Z,101050.19
2023-09-29T07:14:56.860Z,101053.75
2023-09-29T07:18:00.181Z,101059.56
2023-09-29T07:21:02.934Z,101060.00
2023-09-29T07:24:08.746Z,101070.38
2023-09-29T07:27:13.156Z,101061.31
2023-09-29T07:30:16.686Z,101070.91
2023-09-29T07:33:19.700Z,101073.72
2023-09-29T07:36:22.924Z,101071.31
2023-09-29T07:39:25.594Z,101081.19
2023-09-29T07:42:28.447Z,101077.66
2023-09-29T07:45:31.058Z,101079.19
2023-09-29T07:48:34.027Z,101083.66
2023-09-29T07:51:39.497Z,101080.56
2023-09-29T07:54:42.581Z,101080.44
2023-09-29T07:57:45.812Z,101078.88
2023-09-29T08:00:49.732Z,101084.59
2023-09-29T08:03:53.292Z,101084.22
2023-09-29T08:06:56.645Z,101088.37
2023-09-29T08:09:59.842Z,101081.78
2023-09-29T08:13:02.405Z,101084.47
2023-09-29T08:16:05.572Z,101078.22
2023-09-29T08:19:08.647Z,101086.22
2023-09-29T08:22:12.082Z,101087.00
2023-09-29T08:25:15.737Z,101088.81
2023-09-29T08:28:18.909Z,101075.06
2023-09-29T08:31:21.974Z,101081.97
2023-09-29T08:34:31.438Z,101078.94
2023-09-29T08:37:34.342Z,101075.50
2023-09-29T08:40:41.919Z,101081.41
2023-09-29T08:43:55.816Z,101065.38
2023-09-29T08:47:03.300Z,101067.94
2023-09-29T08:50:07.634Z,101071.44
2023-09-29T08:53:12.051Z,101064.25
2023-09-29T08:56:17.504Z,101057.50
2023-09-29T08:59:20.398Z,101062.81
2023-09-29T09:02:26.394Z,101058.41
2023-09-29T09:05:29.520Z,101056.75
2023-09-29T09:08:32.811Z,101060.03
2023-09-29T09:11:44.053Z,101071.94
2023-09-29T09:14:47.140Z,101061.66
2023-09-29T09:17:50.494Z,101057.94
2023-09-29T09:20:53.876Z,101064.72
2023-09-29T09:23:58.762Z,101058.47
2023-09-29T09:27:04.527Z,101048.94
2023-09-29T09:30:22.233Z,101053.91
2023-09-29T09:33:26.826Z,101056.09
2023-09-29T09:36:30.044Z,101055.06
2023-09-29T09:39:34.808Z,101053.56
2023-09-29T09:42:37.761Z,101057.66
2023-09-29T09:45:43.961Z,101048.59
2023-09-29T09:49:14.990Z,101054.03
2023-09-29T09:52:25.371Z,101050.34
2023-09-29T09:55:41.393Z,101050.34
2023-09-29T09:58:44.692Z,101039.31
2023-09-29T10:01:50.447Z,101039.16
2023-09-29T10:04:55.520Z,101038.97
2023-09-29T10:08:08.565Z,101043.19
2023-09-29T10:11:12.726Z,101037.75
2023-09-29T10:14:15.642Z,101027.13
2023-09-29T10:17:19.035Z,101021.94
2023-09-29T10:20:27.842Z,101029.63
2023-09-29T10:23:31.478Z,101029.81
2023-09-29T10:26:49.860Z,101019.91
2023-09-29T10:30:12.487Z,101019.16
2023-09-29T10:33:15.228Z,101023.75
2023-09-29T10:36:19.681Z,101014.13
2023-09-29T10:39:30.312Z,101016.63
2023-09-29T10:42:39.441Z,101006.37
2023-09-29T10:45:42.275Z,101012.28
2023-09-29T10:48:49.949Z,101003.72
2023-09-29T10:51:53.925Z,101003.56
2023-09-29T10:55:00.077Z,101003.59
2023-09-29T10:58:04.667Z,101009.50
2023-09-29T11:01:07.821Z,101007.13
2023-09-29T11:04:12.015Z,101009.31
2023-09-29T11:07:18.331Z,101008.38
2023-09-29T11:10:21.775Z,101005.91
2023-09-29T11:13:25.855Z,100983.78
2023-09-29T11:16:33.104Z,100990.34
2023-09-29T11:19:37.175Z,100983.19
2023-09-29T11:22:39.950Z,100988.34
2023-09-29T11:25:59.275Z,100981.38
2023-09-29T11:29:02.118Z,100975.38
2023-09-29T11:32:05.739Z,100978.28
2023-09-29T11:35:14.919Z,100967.16
2023-09-29T11:38:21.472Z,100955.78
2023-09-29T11:41:24.538Z,100947.62
2023-09-29T11:44:30.213Z,100948.25
2023-09-29T11:47:33.261Z,100948.87
2023-09-29T11:50:36.406Z,100942.44
2023-09-29T11:53:43.701Z,100945.94
2023-09-29T11:56:46.931Z,100946.97
2023-09-29T11:59:49.994Z,100932.03
2023-09-29T12:02:54.883Z,100934.12
2023-09-29T12:06:00.022Z,100936.72
2023-09-29T12:09:04.550Z,100933.19
2023-09-29T12:12:07.525Z,100927.28
2023-09-29T12:15:13.167Z,100919.09
2023-09-29T12:18:17.754Z,100924.31
2023-09-29T12:21:20.776Z,100912.22
2023-09-29T12:24:24.766Z,100915.53
2023-09-29T12:27:27.832Z,100903.81
2023-09-29T12:30:31.894Z,100910.53
2023-09-29T12:33:34.825Z,100903.00
2023-09-29T12:36:37.750Z,100903.62
2023-09-29T12:39:40.771Z,100884.16
2023-09-29T12:42:51.653Z,100885.63
2023-09-29T12:45:55.496Z,100882.34
2023-09-29T12:48:59.486Z,100878.25
2023-09-29T12:52:03.591Z,100886.81
2023-09-29T12:55:08.260Z,100869.59
2023-09-29T12:58:10.891Z,100870.50
2023-09-29T13:01:13.985Z,100874.13
2023-09-29T13:04:17.040Z,100867.19
2023-09-29T13:07:20.624Z,100848.00
2023-09-29T13:10:23.662Z,100849.56
2023-09-29T13:13:27.305Z,100842.69
2023-09-29T13:16:30.027Z,100838.91
2023-09-29T13:19:33.193Z,100838.66
2023-09-29T13:22:35.816Z,100832.88
2023-09-29T13:25:39.338Z,100834.59
2023-09-29T13:28:42.150Z,100831.78
2023-09-29T13:31:45.371Z,100833.44
2023-09-29T13:34:48.216Z,100833.69
2023-09-29T13:37:51.261Z,100823.00
2023-09-29T13:40:54.438Z,100825.97
2023-09-29T13:43:58.047Z,100828.22
2023-09-29T13:47:04.402Z,100825.25
2023-09-29T13:50:12.491Z,100829.38
2023-09-29T13:53:15.927Z,100815.19
2023-09-29T13:56:20.277Z,100824.53
2023-09-29T13:59:22.856Z,100822.25
2023-09-29T14:02:26.365Z,100819.38
2023-09-29T14:05:29.697Z,100820.47
2023-09-29T14:08:33.224Z,100815.34
2023-09-29T14:11:36.366Z,100820.81
2023-09-29T14:14:41.380Z,100813.13
2023-09-29T14:17:46.191Z,100805.72
2023-09-29T14:20:49.156Z,100803.66
2023-09-29T14:23:52.282Z,100805.19
2023-09-29T14:26:54.960Z,100798.66
2023-09-29T14:29:57.959Z,100796.03
2023-09-29T14:33:03.907Z,100794.66
2023-09-29T14:36:08.332Z,100787.25
2023-09-29T14:39:11.016Z,100782.84
2023-09-29T14:42:16.342Z,100782.50
2023-09-29T14:45:19.201Z,100782.06
2023-09-29T14:48:22.481Z,100775.41
2023-09-29T14:51:25.373Z,100769.59
2023-09-29T14:54:28.685Z,100769.88
2023-09-29T14:57:37.089Z,100772.63
2023-09-29T15:00:43.578Z,100771.53
2023-09-29T15:03:47.026Z,100762.06
2023-09-29T15:06:52.687Z,100764.28
2023-09-29T15:09:55.844Z,100758.84
2023-09-29T15:13:00.892Z,100763.59
2023-09-29T15:16:05.719Z,100762.19
2023-09-29T15:19:15.438Z,100757.91
2023-09-29T15:22:21.096Z,100762.56
2023-09-29T15:25:24.248Z,100756.25
2023-09-29T15:28:26.826Z,100755.31
2023-09-29T15:31:30.506Z,100758.87
2023-09-29T15:34:35.793Z,100754.19
2023-09-29T15:37:39.556Z,100758.31
2023-09-29T15:40:43.046Z,100758.31
2023-09-29T15:43:45.936Z,100758.06
2023-09-29T15:46:48.784Z,100757.50
2023-09-29T15:49:51.755Z,100760.31
2023-09-29T15:52:54.659Z,100758.97
2023-09-29T15:55:58.271Z,100759.16
2023-09-29T15:59:01.206Z,100760.22
2023-09-29T16:02:19.687Z,100771.56
2023-09-29T16:05:28.894Z,100764.25
2023-09-29T16:08:34.235Z,100763.19
2023-09-29T16:11:37.230Z,100766.50
2023-09-29T16:14:40.053Z,100770.16
2023-09-29T16:17:44.873Z,100769.72
2023-09-29T16:20:47.639Z,100765.31
2023-09-29T16:23:50.544Z,100773.19
2023-09-29T16:26:53.531Z,100776.00
2023-09-29T16:29:56.714Z,100778.00
2023-09-29T16:33:01.308Z,100778.31
2023-09-29T16:36:05.119Z,100773.25
2023-09-29T16:39:07.909Z,100784.75
2023-09-29T16:42:11.330Z,100778.84
2023-09-29T16:45:17.021Z,100782.25
2023-09-29T16:48:20.484Z,100774.84
2023-09-29T16:51:26.693Z,100780.50
2023-09-29T16:54:31.223Z,100781.19
2023-09-29T16:57:36.453Z,100780.00
2023-09-29T17:00:39.525Z,100783.97
2023-09-29T17:03:45.050Z,100786.31
2023-09-29T17:06:48.206Z,100785.09
2023-09-29T17:09:52.492Z,100783.06
2023-09-29T17:12:55.347Z,100785.97
2023-09-29T17:16:04.862Z,100788.28
2023-09-29T17:19:08.569Z,100788.91
2023-09-29T17:22:11.465Z,100787.44
2023-09-29T17:25:14.610Z,100790.75
2023-09-29T17:28:17.926Z,100794.50
2023-09-29T17:31:21.989Z,100786.63
2023-09-29T17:34:24.838Z,100794.72
2023-09-29T17:37:28.508Z,100793.47
2023-09-29T17:40:31.040Z,100795.31
2023-09-29T17:43:33.972Z,100800.88
2023-09-29T17:46:40.191Z,100814.28
2023-09-29T17:49:43.649Z,100810.59
2023-09-29T17:52:46.610Z,100816.13
2023-09-29T17:55:50.268Z,100815.91
2023-09-29T17:58:52.816Z,100816.13
2023-09-29T18:01:55.782Z,100817.59
2023-09-29T18:04:59.983Z,100819.25
2023-09-29T18:08:03.540Z,100821.50
2023-09-29T18:11:06.577Z,100828.75
2023-09-29T18:14:10.540Z,100824.41
2023-09-29T18:17:13.692Z,100823.19
2023-09-29T18:20:18.469Z,100813.66
2023-09-29T18:23:21.957Z,100822.31
2023-09-29T18:26:24.937Z,100820.03
2023-09-29T18:29:28.155Z,100821.25
2023-09-29T18:32:31.083Z,100824.31
2023-09-29T18:35:35.317Z,100824.31
2023-09-29T18:38:38.488Z,100825.31
2023-09-29T18:41:42.022Z,100830.66
2023-09-29T18:44:45.190Z,100834.75
2023-09-29T18:47:48.783Z,100826.47
2023-09-29T18:50:51.867Z,100830.81
2023-09-29T18:53:55.085Z,100832.22
2023-09-29T18:56:57.945Z,100831.59
2023-09-29T19:00:02.281Z,100832.44
2023-09-29T19:03:05.613Z,100831.66
2023-09-29T19:06:09.062Z,100839.94
2023-09-29T19:09:13.311Z,100836.63
2023-09-29T19:12:16.664Z,100836.78
2023-09-29T19:15:21.535Z,100840.09
2023-09-29T19:18:25.418Z,100837.56
2023-09-29T19:21:28.996Z,100841.94
2023-09-29T19:24:33.646Z,100837.88
2023-09-29T19:27:36.972Z,100840.28
2023-09-29T19:30:40.258Z,100831.31
2023-09-29T19:33:45.344Z,100833.94
2023-09-29T19:36:48.927Z,100828.69
2023-09-29T19:39:52.077Z,100837.31
2023-09-29T19:42:55.585Z,100837.41
2023-09-29T19:45:58.963Z,100838.56
2023-09-29T19:49:02.508Z,100840.41
2023-09-29T19:52:06.083Z,100835.00
2023-09-29T19:55:10.767Z,100834.31
2023-09-29T19:58:14.252Z,100837.59
2023-09-29T20:01:18.423Z,100845.38
2023-09-29T20:04:22.576Z,100845.28
2023-09-29T20:07:25.842Z,100846.28
2023-09-29T20:10:29.035Z,100850.53
2023-09-29T20:13:32.305Z,100845.75
2023-09-29T20:16:35.522Z,100851.44
2023-09-29T20:19:38.471Z,100851.34
2023-09-29T20:22:41.695Z,100850.28
2023-09-29T20:25:44.643Z,100845.94
2023-09-29T20:28:47.800Z,100845.50
2023-09-29T20:31:50.462Z,100845.69
2023-09-29T20:34:56.028Z,100845.94
2023-09-29T20:37:58.972Z,100856.78
2023-09-29T20:41:02.107Z,100847.97
2023-09-29T20:44:04.828Z,100847.84
2023-09-29T20:47:08.151Z,100846.00
2023-09-29T20:50:11.548Z,100852.62
2023-09-29T20:53:14.859Z,100856.91
2023-09-29T20:56:19.248Z,100857.56
2023-09-29T20:59:22.303Z,100859.41
2023-09-29T21:02:24.881Z,100865.75
2023-09-29T21:05:28.098Z,100861.19
2023-09-29T21:08:30.849Z,100860.03
2023-09-29T21:11:33.664Z,100865.25
2023-09-29T21:14:36.502Z,100866.94
2023-09-29T21:17:39.624Z,100867.00
2023-09-29T21:20:42.385Z,100863.63
2023-09-29T21:23:45.778Z,100860.03
2023-09-29T21:26:48.551Z,100861.69
2023-09-29T21:29:51.422Z,100869.12
2023-09-29T21:32:54.058Z,100864.44
2023-09-29T21:35:56.946Z,100869.22
2023-09-29T21:39:00.126Z,100856.59
2023-09-29T21:42:04.124Z,100868.06
2023-09-29T21:45:07.402Z,100867.25
2023-09-29T21:48:10.681Z,100856.00
2023-09-29T21:51:13.241Z,100863.38
2023-09-29T21:54:16.522Z,100857.47
2023-09-29T21:57:19.788Z,100859.41
2023-09-29T22:00:23.128Z,100855.06
2023-09-29T22:03:26.925Z,100850.28
2023-09-29T22:06:31.260Z,100853.69
2023-09-29T22:09:34.884Z,100846.41
2023-09-29T22:12:37.691Z,100839.97
2023-09-29T22:15:40.974Z,100839.22
2023-09-29T22:18:43.718Z,100845.09
2023-09-29T22:21:46.554Z,100850.50
2023-09-29T22:24:51.185Z,100849.03
2023-09-29T22:27:54.009Z,100845.53
2023-09-29T22:30:56.917Z,100844.22
2023-09-29T22:34:00.272Z,100842.72
2023-09-29T22:37:03.099Z,100841.25
2023-09-29T22:40:08.334Z,100847.97
2023-09-29T22:43:12.538Z,100850.13
2023-09-29T22:46:15.971Z,100849.84
2023-09-29T22:49:20.630Z,100853.84
2023-09-29T22:52:25.313Z,100853.84
2023-09-29T22:55:28.159Z,100851.50
2023-09-29T22:58:32.937Z,100850.75
2023-09-29T23:01:35.856Z,100852.97
2023-09-29T23:04:39.041Z,100853.31
2023-09-29T23:07:42.116Z,100855.50
2023-09-29T23:10:46.065Z,100853.00
2023-09-29T23:13:49.915Z,100869.22
2023-09-29T23:16:54.109Z,100860.25
2023-09-29T23:19:56.980Z,100858.28
2023-09-29T23:23:02.678Z,100857.63
2023-09-29T23:26:05.407Z,100867.00
2023-09-29T23:29:08.557Z,100861.97
2023-09-29T23:32:11.527Z,100870.78
2023-09-29T23:35:14.644Z,100870.84
2023-09-29T23:38:17.177Z,100871.72
2023-09-29T23:41:20.307Z,100866.72
2023-09-29T23:44:30.684Z,100865.25
2023-09-29T23:47:34.648Z,100864.78
2023-09-29T23:50:37.478Z,100872.13
2023-09-29T23:53:40.495Z,100871.44
2023-09-29T23:56:43.858Z,100876.12
2023-09-29T23:59:47.128Z,100875.31
